sensor_id;sensor_type;location;lat;lon;timestamp;P1;durP1;ratioP1;P2;durP2;ratioP2
22068;SDS011;13887;57.196;-2.100;2024-01-06T00:01:20;12.87;;;12.47;;
22068;SDS011;13887;57.196;-2.100;2024-01-06T00:03:48;13.47;;;13.07;;
22068;SDS011;13887;57.196;-2.100;2024-01-06T00:06:15;13.57;;;13.17;;
22068;SDS011;13887;57.196;-2.100;2024-01-06T00:08:43;13.60;;;13.20;;
22068;SDS011;13887;57.196;-2.100;2024-01-06T00:11:10;13.50;;;13.10;;
22068;SDS011;13887;57.196;-2.100;2024-01-06T00:13:37;14.33;;;13.83;;
22068;SDS011;13887;57.196;-2.100;2024-01-06T00:16:04;14.00;;;13.50;;
22068;SDS011;13887;57.196;-2.100;2024-01-06T00:18:32;13.70;;;13.30;;
22068;SDS011;13887;57.196;-2.100;2024-01-06T00:20:59;13.67;;;13.27;;
22068;SDS011;13887;57.196;-2.100;2024-01-06T00:23:27;13.93;;;13.43;;
22068;SDS011;13887;57.196;-2.100;2024-01-06T00:25:54;13.93;;;13.43;;
22068;SDS011;13887;57.196;-2.100;2024-01-06T00:28:24;14.27;;;13.77;;
22068;SDS011;13887;57.196;-2.100;2024-01-06T00:30:51;14.40;;;13.90;;
22068;SDS011;13887;57.196;-2.100;2024-01-06T00:33:19;14.10;;;13.60;;
22068;SDS011;13887;57.196;-2.100;2024-01-06T00:35:46;14.07;;;13.60;;
22068;SDS011;13887;57.196;-2.100;2024-01-06T00:38:13;13.63;;;13.23;;
22068;SDS011;13887;57.196;-2.100;2024-01-06T00:40:41;13.50;;;13.10;;
22068;SDS011;13887;57.196;-2.100;2024-01-06T00:43:08;13.37;;;12.97;;
22068;SDS011;13887;57.196;-2.100;2024-01-06T00:45:35;13.67;;;13.23;;
22068;SDS011;13887;57.196;-2.100;2024-01-06T00:48:02;12.97;;;12.57;;
22068;SDS011;13887;57.196;-2.100;2024-01-06T00:50:30;13.07;;;12.67;;
22068;SDS011;13887;57.196;-2.100;2024-01-06T00:52:57;13.40;;;13.00;;
22068;SDS011;13887;57.196;-2.100;2024-01-06T00:55:25;13.70;;;13.30;;
22068;SDS011;13887;57.196;-2.100;2024-01-06T00:57:52;13.37;;;12.97;;
22068;SDS011;13887;57.196;-2.100;2024-01-06T01:00:20;13.50;;;13.10;;
22068;SDS011;13887;57.196;-2.100;2024-01-06T01:02:47;13.67;;;13.20;;
22068;SDS011;13887;57.196;-2.100;2024-01-06T01:05:14;13.67;;;13.20;;
22068;SDS011;13887;57.196;-2.100;2024-01-06T01:07:41;13.63;;;13.20;;
22068;SDS011;13887;57.196;-2.100;2024-01-06T01:10:08;13.70;;;13.30;;
22068;SDS011;13887;57.196;-2.100;2024-01-06T01:12:36;13.43;;;13.03;;
22068;SDS011;13887;57.196;-2.100;2024-01-06T01:15:04;14.07;;;13.57;;
22068;SDS011;13887;57.196;-2.100;2024-01-06T01:17:31;13.27;;;12.87;;
22068;SDS011;13887;57.196;-2.100;2024-01-06T01:19:59;14.07;;;13.57;;
22068;SDS011;13887;57.196;-2.100;2024-01-06T01:22:26;14.20;;;13.70;;
22068;SDS011;13887;57.196;-2.100;2024-01-06T01:24:53;14.07;;;13.57;;
22068;SDS011;13887;57.196;-2.100;2024-01-06T01:27:20;14.33;;;13.83;;
22068;SDS011;13887;57.196;-2.100;2024-01-06T01:29:48;14.30;;;13.80;;
22068;SDS011;13887;57.196;-2.100;2024-01-06T01:32:19;14.20;;;13.70;;
22068;SDS011;13887;57.196;-2.100;2024-01-06T01:34:47;14.23;;;13.73;;
22068;SDS011;13887;57.196;-2.100;2024-01-06T01:37:15;13.97;;;13.47;;
22068;SDS011;13887;57.196;-2.100;2024-01-06T01:39:42;14.13;;;13.63;;
22068;SDS011;13887;57.196;-2.100;2024-01-06T01:42:09;14.10;;;13.60;;
22068;SDS011;13887;57.196;-2.100;2024-01-06T01:44:37;14.13;;;13.63;;
22068;SDS011;13887;57.196;-2.100;2024-01-06T01:47:04;14.33;;;13.83;;
22068;SDS011;13887;57.196;-2.100;2024-01-06T01:49:32;14.30;;;13.80;;
22068;SDS011;13887;57.196;-2.100;2024-01-06T01:52:00;14.50;;;14.00;;
22068;SDS011;13887;57.196;-2.100;2024-01-06T01:54:27;13.93;;;13.43;;
22068;SDS011;13887;57.196;-2.100;2024-01-06T01:56:54;14.27;;;13.77;;
22068;SDS011;13887;57.196;-2.100;2024-01-06T01:59:22;14.10;;;13.60;;
22068;SDS011;13887;57.196;-2.100;2024-01-06T02:01:49;13.93;;;13.43;;
22068;SDS011;13887;57.196;-2.100;2024-01-06T02:04:17;13.37;;;12.97;;
22068;SDS011;13887;57.196;-2.100;2024-01-06T02:06:44;13.90;;;13.40;;
22068;SDS011;13887;57.196;-2.100;2024-01-06T02:09:11;13.83;;;13.33;;
22068;SDS011;13887;57.196;-2.100;2024-01-06T02:11:38;14.37;;;13.87;;
22068;SDS011;13887;57.196;-2.100;2024-01-06T02:14:05;14.00;;;13.50;;
22068;SDS011;13887;57.196;-2.100;2024-01-06T02:16:33;14.10;;;13.60;;
22068;SDS011;13887;57.196;-2.100;2024-01-06T02:19:00;14.13;;;13.63;;
22068;SDS011;13887;57.196;-2.100;2024-01-06T02:21:27;14.30;;;13.80;;
22068;SDS011;13887;57.196;-2.100;2024-01-06T02:23:55;14.07;;;13.57;;
22068;SDS011;13887;57.196;-2.100;2024-01-06T02:26:23;14.47;;;13.97;;
22068;SDS011;13887;57.196;-2.100;2024-01-06T02:28:50;14.70;;;14.20;;
22068;SDS011;13887;57.196;-2.100;2024-01-06T02:31:17;14.53;;;14.03;;
22068;SDS011;13887;57.196;-2.100;2024-01-06T02:33:45;14.37;;;13.87;;
22068;SDS011;13887;57.196;-2.100;2024-01-06T02:36:12;14.27;;;13.77;;
22068;SDS011;13887;57.196;-2.100;2024-01-06T02:38:39;14.43;;;13.93;;
22068;SDS011;13887;57.196;-2.100;2024-01-06T02:41:07;14.47;;;13.97;;
22068;SDS011;13887;57.196;-2.100;2024-01-06T02:43:34;14.90;;;14.40;;
22068;SDS011;13887;57.196;-2.100;2024-01-06T02:46:01;14.60;;;14.10;;
22068;SDS011;13887;57.196;-2.100;2024-01-06T02:48:28;14.37;;;13.87;;
22068;SDS011;13887;57.196;-2.100;2024-01-06T02:50:57;14.80;;;14.30;;
22068;SDS011;13887;57.196;-2.100;2024-01-06T02:53:25;14.87;;;14.37;;
22068;SDS011;13887;57.196;-2.100;2024-01-06T02:55:52;15.17;;;14.67;;
22068;SDS011;13887;57.196;-2.100;2024-01-06T02:58:19;14.70;;;14.20;;
22068;SDS011;13887;57.196;-2.100;2024-01-06T03:00:46;14.40;;;13.90;;
22068;SDS011;13887;57.196;-2.100;2024-01-06T03:03:14;14.70;;;14.20;;
22068;SDS011;13887;57.196;-2.100;2024-01-06T03:05:41;14.30;;;13.80;;
22068;SDS011;13887;57.196;-2.100;2024-01-06T03:08:08;14.90;;;14.40;;
22068;SDS011;13887;57.196;-2.100;2024-01-06T03:10:35;15.73;;;15.13;;
22068;SDS011;13887;57.196;-2.100;2024-01-06T03:13:04;14.77;;;14.27;;
22068;SDS011;13887;57.196;-2.100;2024-01-06T03:15:32;14.63;;;14.13;;
22068;SDS011;13887;57.196;-2.100;2024-01-06T03:17:59;14.90;;;14.40;;
22068;SDS011;13887;57.196;-2.100;2024-01-06T03:20:26;14.53;;;14.03;;
22068;SDS011;13887;57.196;-2.100;2024-01-06T03:22:53;14.53;;;14.03;;
22068;SDS011;13887;57.196;-2.100;2024-01-06T03:25:21;14.40;;;13.90;;
22068;SDS011;13887;57.196;-2.100;2024-01-06T03:27:48;14.70;;;14.20;;
22068;SDS011;13887;57.196;-2.100;2024-01-06T03:30:15;14.33;;;13.83;;
22068;SDS011;13887;57.196;-2.100;2024-01-06T03:32:43;14.93;;;14.43;;
22068;SDS011;13887;57.196;-2.100;2024-01-06T03:35:10;14.53;;;14.03;;
22068;SDS011;13887;57.196;-2.100;2024-01-06T03:37:37;14.50;;;14.00;;
22068;SDS011;13887;57.196;-2.100;2024-01-06T03:40:05;14.47;;;13.97;;
22068;SDS011;13887;57.196;-2.100;2024-01-06T03:42:33;15.00;;;14.50;;
22068;SDS011;13887;57.196;-2.100;2024-01-06T03:45:00;14.73;;;14.23;;
22068;SDS011;13887;57.196;-2.100;2024-01-06T03:47:27;14.60;;;14.10;;
22068;SDS011;13887;57.196;-2.100;2024-01-06T03:49:54;14.37;;;13.87;;
22068;SDS011;13887;57.196;-2.100;2024-01-06T03:52:22;14.80;;;14.30;;
22068;SDS011;13887;57.196;-2.100;2024-01-06T03:54:49;14.80;;;14.30;;
22068;SDS011;13887;57.196;-2.100;2024-01-06T03:57:16;14.47;;;13.97;;
22068;SDS011;13887;57.196;-2.100;2024-01-06T03:59:43;14.67;;;14.17;;
22068;SDS011;13887;57.196;-2.100;2024-01-06T04:02:11;14.43;;;13.93;;
22068;SDS011;13887;57.196;-2.100;2024-01-06T04:04:38;14.70;;;14.20;;
22068;SDS011;13887;57.196;-2.100;2024-01-06T04:07:05;14.10;;;13.60;;
22068;SDS011;13887;57.196;-2.100;2024-01-06T04:09:33;14.70;;;14.20;;
22068;SDS011;13887;57.196;-2.100;2024-01-06T04:12:01;14.23;;;13.73;;
22068;SDS011;13887;57.196;-2.100;2024-01-06T04:14:28;15.00;;;14.50;;
22068;SDS011;13887;57.196;-2.100;2024-01-06T04:16:55;15.33;;;14.73;;
22068;SDS011;13887;57.196;-2.100;2024-01-06T04:19:23;15.27;;;14.67;;
22068;SDS011;13887;57.196;-2.100;2024-01-06T04:21:51;15.10;;;14.50;;
22068;SDS011;13887;57.196;-2.100;2024-01-06T04:24:18;15.30;;;14.70;;
22068;SDS011;13887;57.196;-2.100;2024-01-06T04:26:46;15.27;;;14.67;;
22068;SDS011;13887;57.196;-2.100;2024-01-06T04:29:14;15.13;;;14.53;;
22068;SDS011;13887;57.196;-2.100;2024-01-06T04:31:41;14.67;;;14.17;;
22068;SDS011;13887;57.196;-2.100;2024-01-06T04:34:09;15.20;;;14.60;;
22068;SDS011;13887;57.196;-2.100;2024-01-06T04:36:36;14.80;;;14.30;;
22068;SDS011;13887;57.196;-2.100;2024-01-06T04:39:04;14.67;;;14.17;;
22068;SDS011;13887;57.196;-2.100;2024-01-06T04:41:31;14.70;;;14.20;;
22068;SDS011;13887;57.196;-2.100;2024-01-06T04:43:58;15.30;;;14.70;;
22068;SDS011;13887;57.196;-2.100;2024-01-06T04:46:25;14.90;;;14.40;;
22068;SDS011;13887;57.196;-2.100;2024-01-06T04:48:53;15.30;;;14.70;;
22068;SDS011;13887;57.196;-2.100;2024-01-06T04:51:20;15.30;;;14.70;;
22068;SDS011;13887;57.196;-2.100;2024-01-06T04:53:47;15.23;;;14.63;;
22068;SDS011;13887;57.196;-2.100;2024-01-06T04:56:14;15.33;;;14.73;;
22068;SDS011;13887;57.196;-2.100;2024-01-06T04:58:42;15.00;;;14.50;;
22068;SDS011;13887;57.196;-2.100;2024-01-06T05:01:09;15.27;;;14.67;;
22068;SDS011;13887;57.196;-2.100;2024-01-06T05:03:36;15.40;;;14.80;;
22068;SDS011;13887;57.196;-2.100;2024-01-06T05:06:04;15.33;;;14.73;;
22068;SDS011;13887;57.196;-2.100;2024-01-06T05:08:31;15.23;;;14.63;;
22068;SDS011;13887;57.196;-2.100;2024-01-06T05:10:58;15.30;;;14.70;;
22068;SDS011;13887;57.196;-2.100;2024-01-06T05:13:27;15.30;;;14.70;;
22068;SDS011;13887;57.196;-2.100;2024-01-06T05:15:54;15.53;;;14.93;;
22068;SDS011;13887;57.196;-2.100;2024-01-06T05:18:21;15.17;;;14.57;;
22068;SDS011;13887;57.196;-2.100;2024-01-06T05:20:48;15.60;;;15.00;;
22068;SDS011;13887;57.196;-2.100;2024-01-06T05:23:16;15.13;;;14.53;;
22068;SDS011;13887;57.196;-2.100;2024-01-06T05:25:43;15.53;;;14.93;;
22068;SDS011;13887;57.196;-2.100;2024-01-06T05:28:11;15.73;;;15.13;;
22068;SDS011;13887;57.196;-2.100;2024-01-06T05:30:38;15.63;;;15.03;;
22068;SDS011;13887;57.196;-2.100;2024-01-06T05:33:05;15.43;;;14.83;;
22068;SDS011;13887;57.196;-2.100;2024-01-06T05:35:39;15.67;;;15.07;;
22068;SDS011;13887;57.196;-2.100;2024-01-06T05:38:07;15.40;;;14.80;;
22068;SDS011;13887;57.196;-2.100;2024-01-06T05:40:34;15.73;;;15.13;;
22068;SDS011;13887;57.196;-2.100;2024-01-06T05:43:01;15.83;;;15.23;;
22068;SDS011;13887;57.196;-2.100;2024-01-06T05:45:29;15.53;;;14.93;;
22068;SDS011;13887;57.196;-2.100;2024-01-06T05:47:57;15.70;;;15.10;;
22068;SDS011;13887;57.196;-2.100;2024-01-06T05:50:24;17.63;;;16.93;;
22068;SDS011;13887;57.196;-2.100;2024-01-06T05:52:51;15.23;;;14.63;;
22068;SDS011;13887;57.196;-2.100;2024-01-06T05:55:19;15.37;;;14.77;;
22068;SDS011;13887;57.196;-2.100;2024-01-06T05:57:48;15.20;;;14.60;;
22068;SDS011;13887;57.196;-2.100;2024-01-06T06:00:15;15.27;;;14.67;;
22068;SDS011;13887;57.196;-2.100;2024-01-06T06:02:43;15.70;;;15.10;;
22068;SDS011;13887;57.196;-2.100;2024-01-06T06:05:10;15.27;;;14.67;;
22068;SDS011;13887;57.196;-2.100;2024-01-06T06:07:38;15.67;;;15.07;;
22068;SDS011;13887;57.196;-2.100;2024-01-06T06:10:07;15.63;;;15.03;;
22068;SDS011;13887;57.196;-2.100;2024-01-06T06:12:38;15.83;;;15.23;;
22068;SDS011;13887;57.196;-2.100;2024-01-06T06:15:06;16.07;;;15.47;;
22068;SDS011;13887;57.196;-2.100;2024-01-06T06:17:33;15.80;;;15.20;;
22068;SDS011;13887;57.196;-2.100;2024-01-06T06:20:01;15.80;;;15.20;;
22068;SDS011;13887;57.196;-2.100;2024-01-06T06:22:28;15.43;;;14.83;;
22068;SDS011;13887;57.196;-2.100;2024-01-06T06:24:59;15.77;;;15.17;;
22068;SDS011;13887;57.196;-2.100;2024-01-06T06:27:26;15.77;;;15.17;;
22068;SDS011;13887;57.196;-2.100;2024-01-06T06:29:54;15.63;;;15.03;;
22068;SDS011;13887;57.196;-2.100;2024-01-06T06:32:25;15.90;;;15.30;;
22068;SDS011;13887;57.196;-2.100;2024-01-06T06:34:52;15.70;;;15.10;;
22068;SDS011;13887;57.196;-2.100;2024-01-06T06:37:20;15.73;;;15.13;;
22068;SDS011;13887;57.196;-2.100;2024-01-06T06:39:47;15.40;;;14.80;;
22068;SDS011;13887;57.196;-2.100;2024-01-06T06:42:15;15.60;;;15.00;;
22068;SDS011;13887;57.196;-2.100;2024-01-06T06:44:42;15.40;;;14.80;;
22068;SDS011;13887;57.196;-2.100;2024-01-06T06:47:09;15.27;;;14.67;;
22068;SDS011;13887;57.196;-2.100;2024-01-06T06:49:36;15.50;;;14.90;;
22068;SDS011;13887;57.196;-2.100;2024-01-06T06:52:04;15.70;;;15.10;;
22068;SDS011;13887;57.196;-2.100;2024-01-06T06:54:33;15.30;;;14.70;;
22068;SDS011;13887;57.196;-2.100;2024-01-06T06:57:01;15.53;;;14.93;;
22068;SDS011;13887;57.196;-2.100;2024-01-06T06:59:28;15.30;;;14.70;;
22068;SDS011;13887;57.196;-2.100;2024-01-06T07:01:56;15.43;;;14.83;;
22068;SDS011;13887;57.196;-2.100;2024-01-06T07:04:23;15.90;;;15.30;;
22068;SDS011;13887;57.196;-2.100;2024-01-06T07:06:52;15.70;;;15.10;;
22068;SDS011;13887;57.196;-2.100;2024-01-06T07:09:20;15.63;;;15.03;;
22068;SDS011;13887;57.196;-2.100;2024-01-06T07:11:50;15.73;;;15.13;;
22068;SDS011;13887;57.196;-2.100;2024-01-06T07:14:17;15.60;;;15.00;;
22068;SDS011;13887;57.196;-2.100;2024-01-06T07:16:44;15.57;;;14.97;;
22068;SDS011;13887;57.196;-2.100;2024-01-06T07:19:12;15.67;;;15.07;;
22068;SDS011;13887;57.196;-2.100;2024-01-06T07:21:39;15.63;;;15.03;;
22068;SDS011;13887;57.196;-2.100;2024-01-06T07:24:06;15.40;;;14.80;;
22068;SDS011;13887;57.196;-2.100;2024-01-06T07:26:34;15.30;;;14.70;;
22068;SDS011;13887;57.196;-2.100;2024-01-06T07:29:01;15.40;;;14.80;;
22068;SDS011;13887;57.196;-2.100;2024-01-06T07:31:28;14.93;;;14.43;;
22068;SDS011;13887;57.196;-2.100;2024-01-06T07:33:55;15.40;;;14.80;;
22068;SDS011;13887;57.196;-2.100;2024-01-06T07:36:24;15.60;;;15.00;;
22068;SDS011;13887;57.196;-2.100;2024-01-06T07:38:51;15.60;;;15.00;;
22068;SDS011;13887;57.196;-2.100;2024-01-06T07:41:18;15.00;;;14.50;;
22068;SDS011;13887;57.196;-2.100;2024-01-06T07:43:46;15.53;;;14.93;;
22068;SDS011;13887;57.196;-2.100;2024-01-06T07:46:14;17.50;;;16.80;;
22068;SDS011;13887;57.196;-2.100;2024-01-06T07:48:45;15.03;;;14.53;;
22068;SDS011;13887;57.196;-2.100;2024-01-06T07:51:12;15.53;;;14.93;;
22068;SDS011;13887;57.196;-2.100;2024-01-06T07:53:40;15.20;;;14.63;;
22068;SDS011;13887;57.196;-2.100;2024-01-06T07:56:07;15.30;;;14.70;;
22068;SDS011;13887;57.196;-2.100;2024-01-06T07:58:35;14.67;;;14.17;;
22068;SDS011;13887;57.196;-2.100;2024-01-06T08:01:02;14.90;;;14.40;;
22068;SDS011;13887;57.196;-2.100;2024-01-06T08:03:29;15.00;;;14.50;;
22068;SDS011;13887;57.196;-2.100;2024-01-06T08:05:57;14.70;;;14.20;;
22068;SDS011;13887;57.196;-2.100;2024-01-06T08:08:24;14.87;;;14.37;;
22068;SDS011;13887;57.196;-2.100;2024-01-06T08:10:52;15.53;;;14.93;;
22068;SDS011;13887;57.196;-2.100;2024-01-06T08:13:19;15.40;;;14.80;;
22068;SDS011;13887;57.196;-2.100;2024-01-06T08:15:47;15.00;;;14.50;;
22068;SDS011;13887;57.196;-2.100;2024-01-06T08:18:14;15.13;;;14.53;;
22068;SDS011;13887;57.196;-2.100;2024-01-06T08:20:42;15.00;;;14.50;;
22068;SDS011;13887;57.196;-2.100;2024-01-06T08:23:09;14.77;;;14.27;;
22068;SDS011;13887;57.196;-2.100;2024-01-06T08:25:37;14.83;;;14.33;;
22068;SDS011;13887;57.196;-2.100;2024-01-06T08:28:04;15.33;;;14.73;;
22068;SDS011;13887;57.196;-2.100;2024-01-06T08:30:32;15.10;;;14.60;;
22068;SDS011;13887;57.196;-2.100;2024-01-06T08:32:59;14.80;;;14.30;;
22068;SDS011;13887;57.196;-2.100;2024-01-06T08:35:26;15.17;;;14.63;;
22068;SDS011;13887;57.196;-2.100;2024-01-06T08:37:54;14.80;;;14.30;;
22068;SDS011;13887;57.196;-2.100;2024-01-06T08:40:21;15.43;;;14.83;;
22068;SDS011;13887;57.196;-2.100;2024-01-06T08:42:48;14.97;;;14.47;;
22068;SDS011;13887;57.196;-2.100;2024-01-06T08:45:16;15.40;;;14.80;;
22068;SDS011;13887;57.196;-2.100;2024-01-06T08:47:43;15.17;;;14.57;;
22068;SDS011;13887;57.196;-2.100;2024-01-06T08:50:10;15.00;;;14.50;;
22068;SDS011;13887;57.196;-2.100;2024-01-06T08:52:37;14.97;;;14.47;;
22068;SDS011;13887;57.196;-2.100;2024-01-06T08:55:05;14.90;;;14.40;;
22068;SDS011;13887;57.196;-2.100;2024-01-06T08:57:32;14.47;;;13.97;;
22068;SDS011;13887;57.196;-2.100;2024-01-06T09:00:00;14.90;;;14.40;;
22068;SDS011;13887;57.196;-2.100;2024-01-06T09:02:27;14.93;;;14.43;;
22068;SDS011;13887;57.196;-2.100;2024-01-06T09:04:54;15.20;;;14.70;;
22068;SDS011;13887;57.196;-2.100;2024-01-06T09:07:21;14.17;;;13.67;;
22068;SDS011;13887;57.196;-2.100;2024-01-06T09:09:49;14.93;;;14.43;;
22068;SDS011;13887;57.196;-2.100;2024-01-06T09:12:16;14.67;;;14.17;;
22068;SDS011;13887;57.196;-2.100;2024-01-06T09:14:43;14.90;;;14.40;;
22068;SDS011;13887;57.196;-2.100;2024-01-06T09:17:10;14.50;;;14.00;;
22068;SDS011;13887;57.196;-2.100;2024-01-06T09:19:38;14.60;;;14.10;;
22068;SDS011;13887;57.196;-2.100;2024-01-06T09:22:05;14.30;;;13.80;;
22068;SDS011;13887;57.196;-2.100;2024-01-06T09:24:32;14.63;;;14.13;;
22068;SDS011;13887;57.196;-2.100;2024-01-06T09:27:00;14.73;;;14.23;;
22068;SDS011;13887;57.196;-2.100;2024-01-06T09:29:27;14.27;;;13.77;;
22068;SDS011;13887;57.196;-2.100;2024-01-06T09:31:54;14.60;;;14.10;;
22068;SDS011;13887;57.196;-2.100;2024-01-06T09:34:22;14.53;;;14.03;;
22068;SDS011;13887;57.196;-2.100;2024-01-06T09:36:49;14.10;;;13.60;;
22068;SDS011;13887;57.196;-2.100;2024-01-06T09:39:16;13.90;;;13.40;;
22068;SDS011;13887;57.196;-2.100;2024-01-06T09:41:44;14.27;;;13.77;;
22068;SDS011;13887;57.196;-2.100;2024-01-06T09:44:11;14.13;;;13.63;;
22068;SDS011;13887;57.196;-2.100;2024-01-06T09:46:42;14.20;;;13.70;;
22068;SDS011;13887;57.196;-2.100;2024-01-06T09:49:10;14.50;;;14.00;;
22068;SDS011;13887;57.196;-2.100;2024-01-06T09:51:37;14.10;;;13.60;;
22068;SDS011;13887;57.196;-2.100;2024-01-06T09:54:09;14.00;;;13.50;;
22068;SDS011;13887;57.196;-2.100;2024-01-06T09:56:39;14.50;;;14.00;;
22068;SDS011;13887;57.196;-2.100;2024-01-06T09:59:06;13.90;;;13.40;;
22068;SDS011;13887;57.196;-2.100;2024-01-06T10:01:34;14.30;;;13.80;;
22068;SDS011;13887;57.196;-2.100;2024-01-06T10:04:01;13.60;;;13.10;;
22068;SDS011;13887;57.196;-2.100;2024-01-06T10:06:30;13.60;;;13.10;;
22068;SDS011;13887;57.196;-2.100;2024-01-06T10:08:57;14.23;;;13.73;;
22068;SDS011;13887;57.196;-2.100;2024-01-06T10:11:24;14.30;;;13.80;;
22068;SDS011;13887;57.196;-2.100;2024-01-06T10:13:53;14.23;;;13.73;;
22068;SDS011;13887;57.196;-2.100;2024-01-06T10:16:23;14.13;;;13.63;;
22068;SDS011;13887;57.196;-2.100;2024-01-06T10:18:50;14.10;;;13.60;;
22068;SDS011;13887;57.196;-2.100;2024-01-06T10:21:20;14.47;;;13.97;;
22068;SDS011;13887;57.196;-2.100;2024-01-06T10:23:49;14.20;;;13.70;;
22068;SDS011;13887;57.196;-2.100;2024-01-06T10:26:18;13.90;;;13.40;;
22068;SDS011;13887;57.196;-2.100;2024-01-06T10:28:45;14.33;;;13.83;;
22068;SDS011;13887;57.196;-2.100;2024-01-06T10:31:14;14.40;;;13.90;;
22068;SDS011;13887;57.196;-2.100;2024-01-06T10:33:42;13.90;;;13.40;;
22068;SDS011;13887;57.196;-2.100;2024-01-06T10:36:09;14.27;;;13.77;;
22068;SDS011;13887;57.196;-2.100;2024-01-06T10:38:37;13.73;;;13.23;;
22068;SDS011;13887;57.196;-2.100;2024-01-06T10:41:04;13.97;;;13.47;;
22068;SDS011;13887;57.196;-2.100;2024-01-06T10:43:36;14.03;;;13.53;;
22068;SDS011;13887;57.196;-2.100;2024-01-06T10:46:10;14.23;;;13.73;;
22068;SDS011;13887;57.196;-2.100;2024-01-06T10:48:39;14.10;;;13.60;;
22068;SDS011;13887;57.196;-2.100;2024-01-06T10:51:13;14.13;;;13.63;;
22068;SDS011;13887;57.196;-2.100;2024-01-06T10:53:42;14.60;;;14.10;;
22068;SDS011;13887;57.196;-2.100;2024-01-06T10:56:10;14.40;;;13.90;;
22068;SDS011;13887;57.196;-2.100;2024-01-06T10:58:39;13.90;;;13.40;;
22068;SDS011;13887;57.196;-2.100;2024-01-06T11:01:13;14.30;;;13.80;;
22068;SDS011;13887;57.196;-2.100;2024-01-06T11:03:46;14.20;;;13.70;;
22068;SDS011;13887;57.196;-2.100;2024-01-06T11:06:15;14.50;;;14.00;;
22068;SDS011;13887;57.196;-2.100;2024-01-06T11:08:58;14.27;;;13.77;;
22068;SDS011;13887;57.196;-2.100;2024-01-06T11:11:30;14.47;;;13.97;;
22068;SDS011;13887;57.196;-2.100;2024-01-06T11:17:04;14.40;;;13.90;;
22068;SDS011;13887;57.196;-2.100;2024-01-06T11:22:46;14.40;;;13.90;;
22068;SDS011;13887;57.196;-2.100;2024-01-06T11:25:04;13.73;;;13.23;;
22068;SDS011;13887;57.196;-2.100;2024-01-06T11:27:35;13.93;;;13.43;;
22068;SDS011;13887;57.196;-2.100;2024-01-06T11:30:03;14.37;;;13.87;;
22068;SDS011;13887;57.196;-2.100;2024-01-06T11:32:35;14.37;;;13.87;;
22068;SDS011;13887;57.196;-2.100;2024-01-06T11:35:07;14.40;;;13.90;;
22068;SDS011;13887;57.196;-2.100;2024-01-06T11:42:48;13.83;;;13.33;;
22068;SDS011;13887;57.196;-2.100;2024-01-06T11:45:36;13.77;;;13.27;;
22068;SDS011;13887;57.196;-2.100;2024-01-06T11:48:10;13.63;;;13.13;;
22068;SDS011;13887;57.196;-2.100;2024-01-06T11:50:41;13.70;;;13.20;;
22068;SDS011;13887;57.196;-2.100;2024-01-06T11:53:09;14.40;;;13.90;;
22068;SDS011;13887;57.196;-2.100;2024-01-06T11:55:40;14.17;;;13.67;;
22068;SDS011;13887;57.196;-2.100;2024-01-06T11:58:09;14.10;;;13.60;;
22068;SDS011;13887;57.196;-2.100;2024-01-06T12:00:37;14.13;;;13.63;;
22068;SDS011;13887;57.196;-2.100;2024-01-06T12:03:07;14.13;;;13.63;;
22068;SDS011;13887;57.196;-2.100;2024-01-06T12:05:35;14.10;;;13.60;;
22068;SDS011;13887;57.196;-2.100;2024-01-06T12:08:03;14.47;;;13.97;;
22068;SDS011;13887;57.196;-2.100;2024-01-06T12:10:34;14.63;;;14.13;;
22068;SDS011;13887;57.196;-2.100;2024-01-06T12:13:03;14.50;;;14.00;;
22068;SDS011;13887;57.196;-2.100;2024-01-06T12:15:32;14.47;;;13.97;;
22068;SDS011;13887;57.196;-2.100;2024-01-06T12:18:02;14.60;;;14.10;;
22068;SDS011;13887;57.196;-2.100;2024-01-06T12:20:30;14.20;;;13.70;;
22068;SDS011;13887;57.196;-2.100;2024-01-06T12:22:58;14.17;;;13.67;;
22068;SDS011;13887;57.196;-2.100;2024-01-06T12:25:27;13.90;;;13.40;;
22068;SDS011;13887;57.196;-2.100;2024-01-06T12:27:56;14.00;;;13.50;;
22068;SDS011;13887;57.196;-2.100;2024-01-06T12:30:23;13.73;;;13.23;;
22068;SDS011;13887;57.196;-2.100;2024-01-06T12:32:52;14.60;;;14.10;;
22068;SDS011;13887;57.196;-2.100;2024-01-06T12:35:20;14.80;;;14.30;;
22068;SDS011;13887;57.196;-2.100;2024-01-06T12:37:48;14.67;;;14.17;;
22068;SDS011;13887;57.196;-2.100;2024-01-06T12:40:16;14.30;;;13.80;;
22068;SDS011;13887;57.196;-2.100;2024-01-06T12:42:44;14.73;;;14.23;;
22068;SDS011;13887;57.196;-2.100;2024-01-06T12:45:13;14.60;;;14.10;;
22068;SDS011;13887;57.196;-2.100;2024-01-06T12:47:42;15.00;;;14.50;;
22068;SDS011;13887;57.196;-2.100;2024-01-06T12:50:10;14.67;;;14.17;;
22068;SDS011;13887;57.196;-2.100;2024-01-06T12:52:37;14.13;;;13.63;;
22068;SDS011;13887;57.196;-2.100;2024-01-06T12:55:06;14.57;;;14.07;;
22068;SDS011;13887;57.196;-2.100;2024-01-06T12:57:35;14.70;;;14.20;;
22068;SDS011;13887;57.196;-2.100;2024-01-06T13:00:03;14.57;;;14.07;;
22068;SDS011;13887;57.196;-2.100;2024-01-06T13:02:32;14.60;;;14.10;;
22068;SDS011;13887;57.196;-2.100;2024-01-06T13:05:00;14.80;;;14.30;;
22068;SDS011;13887;57.196;-2.100;2024-01-06T13:07:27;14.40;;;13.90;;
22068;SDS011;13887;57.196;-2.100;2024-01-06T13:09:54;14.53;;;14.03;;
22068;SDS011;13887;57.196;-2.100;2024-01-06T13:12:22;15.00;;;14.40;;
22068;SDS011;13887;57.196;-2.100;2024-01-06T13:14:50;14.67;;;14.17;;
22068;SDS011;13887;57.196;-2.100;2024-01-06T13:17:18;14.20;;;13.70;;
22068;SDS011;13887;57.196;-2.100;2024-01-06T13:19:45;14.53;;;14.03;;
22068;SDS011;13887;57.196;-2.100;2024-01-06T13:22:12;14.63;;;14.13;;
22068;SDS011;13887;57.196;-2.100;2024-01-06T13:24:41;14.50;;;14.00;;
22068;SDS011;13887;57.196;-2.100;2024-01-06T13:27:09;14.43;;;13.93;;
22068;SDS011;13887;57.196;-2.100;2024-01-06T13:29:36;14.40;;;13.90;;
22068;SDS011;13887;57.196;-2.100;2024-01-06T13:32:03;14.30;;;13.80;;
22068;SDS011;13887;57.196;-2.100;2024-01-06T13:34:32;14.63;;;14.13;;
22068;SDS011;13887;57.196;-2.100;2024-01-06T13:37:00;14.00;;;13.50;;
22068;SDS011;13887;57.196;-2.100;2024-01-06T13:39:27;14.30;;;13.80;;
22068;SDS011;13887;57.196;-2.100;2024-01-06T13:41:54;14.20;;;13.70;;
22068;SDS011;13887;57.196;-2.100;2024-01-06T13:44:22;14.60;;;14.10;;
22068;SDS011;13887;57.196;-2.100;2024-01-06T13:46:49;14.80;;;14.30;;
22068;SDS011;13887;57.196;-2.100;2024-01-06T13:49:17;13.90;;;13.40;;
22068;SDS011;13887;57.196;-2.100;2024-01-06T13:51:45;13.80;;;13.30;;
22068;SDS011;13887;57.196;-2.100;2024-01-06T13:54:13;14.27;;;13.77;;
22068;SDS011;13887;57.196;-2.100;2024-01-06T13:56:45;14.07;;;13.57;;
22068;SDS011;13887;57.196;-2.100;2024-01-06T13:59:13;14.00;;;13.50;;
22068;SDS011;13887;57.196;-2.100;2024-01-06T14:01:40;13.80;;;13.30;;
22068;SDS011;13887;57.196;-2.100;2024-01-06T14:04:08;14.27;;;13.77;;
22068;SDS011;13887;57.196;-2.100;2024-01-06T14:06:35;14.40;;;13.90;;
22068;SDS011;13887;57.196;-2.100;2024-01-06T14:09:02;14.03;;;13.53;;
22068;SDS011;13887;57.196;-2.100;2024-01-06T14:11:32;14.00;;;13.50;;
22068;SDS011;13887;57.196;-2.100;2024-01-06T14:14:00;14.03;;;13.53;;
22068;SDS011;13887;57.196;-2.100;2024-01-06T14:16:27;14.20;;;13.70;;
22068;SDS011;13887;57.196;-2.100;2024-01-06T14:18:55;14.13;;;13.63;;
22068;SDS011;13887;57.196;-2.100;2024-01-06T14:21:22;13.97;;;13.47;;
22068;SDS011;13887;57.196;-2.100;2024-01-06T14:23:50;14.20;;;13.70;;